sensor_id;sensor_type;location;lat;lon;timestamp;temperature;humidity
51579;DHT22;47998;53.242;6.386;2024-03-17T00:01:10;1.90;99.90
51579;DHT22;47998;53.242;6.386;2024-03-17T00:03:36;1.90;99.90
51579;DHT22;47998;53.242;6.386;2024-03-17T00:06:02;1.90;99.90
51579;DHT22;47998;53.242;6.386;2024-03-17T00:08:28;1.90;99.90
51579;DHT22;47998;53.242;6.386;2024-03-17T00:10:54;1.80;99.90
51579;DHT22;47998;53.242;6.386;2024-03-17T00:13:23;1.70;99.90
51579;DHT22;47998;53.242;6.386;2024-03-17T00:15:49;1.80;99.90
51579;DHT22;47998;53.242;6.386;2024-03-17T00:18:15;1.70;99.90
51579;DHT22;47998;53.242;6.386;2024-03-17T00:20:41;1.70;99.90
51579;DHT22;47998;53.242;6.386;2024-03-17T00:23:07;1.70;99.90
51579;DHT22;47998;53.242;6.386;2024-03-17T00:25:35;1.60;99.90
51579;DHT22;47998;53.242;6.386;2024-03-17T00:28:01;1.70;99.90
51579;DHT22;47998;53.242;6.386;2024-03-17T00:30:27;1.60;99.90
51579;DHT22;47998;53.242;6.386;2024-03-17T00:32:53;1.60;99.90
51579;DHT22;47998;53.242;6.386;2024-03-17T00:35:19;1.60;99.90
51579;DHT22;47998;53.242;6.386;2024-03-17T00:37:50;1.50;99.90
51579;DHT22;47998;53.242;6.386;2024-03-17T00:40:17;1.50;99.90
51579;DHT22;47998;53.242;6.386;2024-03-17T00:42:43;1.50;99.90
51579;DHT22;47998;53.242;6.386;2024-03-17T00:45:10;1.40;99.90
51579;DHT22;47998;53.242;6.386;2024-03-17T00:47:37;1.40;99.90
51579;DHT22;47998;53.242;6.386;2024-03-17T00:50:03;1.50;99.90
51579;DHT22;47998;53.242;6.386;2024-03-17T00:52:30;1.50;99.90
51579;DHT22;47998;53.242;6.386;2024-03-17T00:54:56;1.40;99.90
51579;DHT22;47998;53.242;6.386;2024-03-17T00:57:21;1.40;99.90
51579;DHT22;47998;53.242;6.386;2024-03-17T00:59:47;1.40;99.90
51579;DHT22;47998;53.242;6.386;2024-03-17T01:02:16;1.30;99.90
51579;DHT22;47998;53.242;6.386;2024-03-17T01:04:43;1.20;99.90
51579;DHT22;47998;53.242;6.386;2024-03-17T01:07:09;1.20;99.90
51579;DHT22;47998;53.242;6.386;2024-03-17T01:09:35;1.20;99.90
51579;DHT22;47998;53.242;6.386;2024-03-17T01:12:01;1.10;99.90
51579;DHT22;47998;53.242;6.386;2024-03-17T01:14:28;1.10;99.90
51579;DHT22;47998;53.242;6.386;2024-03-17T01:16:54;1.00;99.90
51579;DHT22;47998;53.242;6.386;2024-03-17T01:19:19;1.10;99.90
51579;DHT22;47998;53.242;6.386;2024-03-17T01:21:46;0.90;99.90
51579;DHT22;47998;53.242;6.386;2024-03-17T01:24:12;0.90;99.90
51579;DHT22;47998;53.242;6.386;2024-03-17T01:26:38;1.00;99.90
51579;DHT22;47998;53.242;6.386;2024-03-17T01:29:04;0.90;99.90
51579;DHT22;47998;53.242;6.386;2024-03-17T01:31:30;0.90;99.90
51579;DHT22;47998;53.242;6.386;2024-03-17T01:33:55;0.90;99.90
51579;DHT22;47998;53.242;6.386;2024-03-17T01:36:21;0.90;99.90
51579;DHT22;47998;53.242;6.386;2024-03-17T01:38:47;0.90;99.90
51579;DHT22;47998;53.242;6.386;2024-03-17T01:41:13;0.90;99.90
51579;DHT22;47998;53.242;6.386;2024-03-17T01:43:39;0.90;99.90
51579;DHT22;47998;53.242;6.386;2024-03-17T01:46:07;0.90;99.90
51579;DHT22;47998;53.242;6.386;2024-03-17T01:48:37;0.90;99.90
51579;DHT22;47998;53.242;6.386;2024-03-17T01:51:04;0.80;99.90
51579;DHT22;47998;53.242;6.386;2024-03-17T01:53:30;0.80;99.90
51579;DHT22;47998;53.242;6.386;2024-03-17T01:55:57;0.70;99.90
51579;DHT22;47998;53.242;6.386;2024-03-17T01:58:25;0.80;99.90
51579;DHT22;47998;53.242;6.386;2024-03-17T02:00:51;0.80;99.90
51579;DHT22;47998;53.242;6.386;2024-03-17T02:03:17;0.80;99.90
51579;DHT22;47998;53.242;6.386;2024-03-17T02:05:44;0.80;99.90
51579;DHT22;47998;53.242;6.386;2024-03-17T02:08:10;0.90;99.90
51579;DHT22;47998;53.242;6.386;2024-03-17T02:10:37;0.80;99.90
51579;DHT22;47998;53.242;6.386;2024-03-17T02:13:03;0.80;99.90
51579;DHT22;47998;53.242;6.386;2024-03-17T02:15:32;0.80;99.90
51579;DHT22;47998;53.242;6.386;2024-03-17T02:17:59;0.80;99.90
51579;DHT22;47998;53.242;6.386;2024-03-17T02:20:25;0.80;99.90
51579;DHT22;47998;53.242;6.386;2024-03-17T02:23:11;0.90;99.90
51579;DHT22;47998;53.242;6.386;2024-03-17T02:25:36;0.90;99.90
51579;DHT22;47998;53.242;6.386;2024-03-17T02:28:03;1.10;99.90
51579;DHT22;47998;53.242;6.386;2024-03-17T02:30:30;0.90;99.90
51579;DHT22;47998;53.242;6.386;2024-03-17T02:32:56;1.00;99.90
51579;DHT22;47998;53.242;6.386;2024-03-17T02:35:23;1.00;99.90
51579;DHT22;47998;53.242;6.386;2024-03-17T02:37:49;1.00;99.90
51579;DHT22;47998;53.242;6.386;2024-03-17T02:40:15;1.20;99.90
51579;DHT22;47998;53.242;6.386;2024-03-17T02:42:42;1.30;99.90
51579;DHT22;47998;53.242;6.386;2024-03-17T02:45:08;1.50;99.90
51579;DHT22;47998;53.242;6.386;2024-03-17T02:47:34;1.60;99.90
51579;DHT22;47998;53.242;6.386;2024-03-17T02:50:00;1.60;99.90
51579;DHT22;47998;53.242;6.386;2024-03-17T02:52:27;1.70;99.90
51579;DHT22;47998;53.242;6.386;2024-03-17T02:54:53;1.80;99.90
51579;DHT22;47998;53.242;6.386;2024-03-17T02:57:22;1.90;99.90
51579;DHT22;47998;53.242;6.386;2024-03-17T02:59:50;1.90;99.90
51579;DHT22;47998;53.242;6.386;2024-03-17T03:02:17;2.00;99.90
51579;DHT22;47998;53.242;6.386;2024-03-17T03:04:43;2.00;99.90
51579;DHT22;47998;53.242;6.386;2024-03-17T03:07:09;2.00;99.90
51579;DHT22;47998;53.242;6.386;2024-03-17T03:09:35;2.00;99.90
51579;DHT22;47998;53.242;6.386;2024-03-17T03:12:01;2.10;99.90
51579;DHT22;47998;53.242;6.386;2024-03-17T03:14:30;2.10;99.90
51579;DHT22;47998;53.242;6.386;2024-03-17T03:16:57;2.10;99.90
51579;DHT22;47998;53.242;6.386;2024-03-17T03:19:23;2.10;99.90
51579;DHT22;47998;53.242;6.386;2024-03-17T03:21:50;2.10;99.90
51579;DHT22;47998;53.242;6.386;2024-03-17T03:24:16;2.30;99.90
51579;DHT22;47998;53.242;6.386;2024-03-17T03:26:43;2.20;99.90
51579;DHT22;47998;53.242;6.386;2024-03-17T03:29:09;2.30;99.90
51579;DHT22;47998;53.242;6.386;2024-03-17T03:31:36;2.30;99.90
51579;DHT22;47998;53.242;6.386;2024-03-17T03:34:01;2.30;99.90
51579;DHT22;47998;53.242;6.386;2024-03-17T03:36:29;2.40;99.90
51579;DHT22;47998;53.242;6.386;2024-03-17T03:38:55;2.30;99.90
51579;DHT22;47998;53.242;6.386;2024-03-17T03:41:23;2.30;99.90
51579;DHT22;47998;53.242;6.386;2024-03-17T03:43:50;2.40;99.90
51579;DHT22;47998;53.242;6.386;2024-03-17T03:46:16;2.40;99.90
51579;DHT22;47998;53.242;6.386;2024-03-17T03:48:41;2.40;99.90
51579;DHT22;47998;53.242;6.386;2024-03-17T03:51:09;2.40;99.90
51579;DHT22;47998;53.242;6.386;2024-03-17T03:53:36;2.40;99.90
51579;DHT22;47998;53.242;6.386;2024-03-17T03:56:06;2.50;99.90
51579;DHT22;47998;53.242;6.386;2024-03-17T03:58:35;2.50;99.90
51579;DHT22;47998;53.242;6.386;2024-03-17T04:01:05;2.50;99.90
51579;DHT22;47998;53.242;6.386;2024-03-17T04:03:32;2.50;99.90
51579;DHT22;47998;53.242;6.386;2024-03-17T04:06:11;2.60;99.90
51579;DHT22;47998;53.242;6.386;2024-03-17T04:08:39;2.60;99.90
51579;DHT22;47998;53.242;6.386;2024-03-17T04:11:08;2.60;99.90
51579;DHT22;47998;53.242;6.386;2024-03-17T04:13:35;2.70;99.90
51579;DHT22;47998;53.242;6.386;2024-03-17T04:16:03;2.70;99.90
51579;DHT22;47998;53.242;6.386;2024-03-17T04:18:31;2.70;99.90
51579;DHT22;47998;53.242;6.386;2024-03-17T04:21:00;2.70;99.90
51579;DHT22;47998;53.242;6.386;2024-03-17T04:23:26;2.70;99.90
51579;DHT22;47998;53.242;6.386;2024-03-17T04:25:52;2.70;99.90
51579;DHT22;47998;53.242;6.386;2024-03-17T04:28:18;2.70;99.90
51579;DHT22;47998;53.242;6.386;2024-03-17T04:30:44;2.70;99.90
51579;DHT22;47998;53.242;6.386;2024-03-17T04:33:14;2.70;99.90
51579;DHT22;47998;53.242;6.386;2024-03-17T04:35:42;2.70;99.90
51579;DHT22;47998;53.242;6.386;2024-03-17T04:38:08;2.70;99.90
51579;DHT22;47998;53.242;6.386;2024-03-17T04:40:35;2.70;99.90
51579;DHT22;47998;53.242;6.386;2024-03-17T04:43:05;2.80;99.90
51579;DHT22;47998;53.242;6.386;2024-03-17T04:45:31;2.80;99.90
51579;DHT22;47998;53.242;6.386;2024-03-17T04:47:57;2.80;99.90
51579;DHT22;47998;53.242;6.386;2024-03-17T04:50:23;2.80;99.90
51579;DHT22;47998;53.242;6.386;2024-03-17T04:52:49;2.80;99.90
51579;DHT22;47998;53.242;6.386;2024-03-17T04:55:15;2.80;99.90
51579;DHT22;47998;53.242;6.386;2024-03-17T04:57:43;2.80;99.90
51579;DHT22;47998;53.242;6.386;2024-03-17T05:00:10;2.80;99.90
51579;DHT22;47998;53.242;6.386;2024-03-17T05:02:37;2.80;99.90
51579;DHT22;47998;53.242;6.386;2024-03-17T05:05:03;2.80;99.90
51579;DHT22;47998;53.242;6.386;2024-03-17T05:07:31;2.80;99.90
51579;DHT22;47998;53.242;6.386;2024-03-17T05:09:56;2.80;99.90
51579;DHT22;47998;53.242;6.386;2024-03-17T05:12:23;2.80;99.90
51579;DHT22;47998;53.242;6.386;2024-03-17T05:14:48;2.80;99.90
51579;DHT22;47998;53.242;6.386;2024-03-17T05:17:14;2.80;99.90
51579;DHT22;47998;53.242;6.386;2024-03-17T05:19:40;2.90;99.90
51579;DHT22;47998;53.242;6.386;2024-03-17T05:22:06;2.90;99.90
51579;DHT22;47998;53.242;6.386;2024-03-17T05:24:32;2.90;99.90
51579;DHT22;47998;53.242;6.386;2024-03-17T05:26:57;2.90;99.90
51579;DHT22;47998;53.242;6.386;2024-03-17T05:29:23;2.90;99.90
51579;DHT22;47998;53.242;6.386;2024-03-17T05:31:49;2.90;99.90
51579;DHT22;47998;53.242;6.386;2024-03-17T05:34:15;2.90;99.90
51579;DHT22;47998;53.242;6.386;2024-03-17T05:36:41;2.90;99.90
51579;DHT22;47998;53.242;6.386;2024-03-17T05:39:07;2.90;99.90
51579;DHT22;47998;53.242;6.386;2024-03-17T05:41:32;2.90;99.90
51579;DHT22;47998;53.242;6.386;2024-03-17T05:43:58;2.90;99.90
51579;DHT22;47998;53.242;6.386;2024-03-17T05:46:25;2.90;99.90
51579;DHT22;47998;53.242;6.386;2024-03-17T05:48:53;2.90;99.90
51579;DHT22;47998;53.242;6.386;2024-03-17T05:51:19;2.90;99.90
51579;DHT22;47998;53.242;6.386;2024-03-17T05:53:45;2.90;99.90
51579;DHT22;47998;53.242;6.386;2024-03-17T05:56:12;2.90;99.90
51579;DHT22;47998;53.242;6.386;2024-03-17T05:58:38;3.00;99.90
51579;DHT22;47998;53.242;6.386;2024-03-17T06:01:05;3.00;99.90
51579;DHT22;47998;53.242;6.386;2024-03-17T06:03:33;3.00;99.90
51579;DHT22;47998;53.242;6.386;2024-03-17T06:06:01;3.10;99.90
51579;DHT22;47998;53.242;6.386;2024-03-17T06:08:27;3.20;99.90
51579;DHT22;47998;53.242;6.386;2024-03-17T06:10:53;3.30;99.90
51579;DHT22;47998;53.242;6.386;2024-03-17T06:13:19;3.40;99.90
51579;DHT22;47998;53.242;6.386;2024-03-17T06:15:45;3.50;99.90
51579;DHT22;47998;53.242;6.386;2024-03-17T06:18:13;3.50;99.90
51579;DHT22;47998;53.242;6.386;2024-03-17T06:20:41;3.60;99.90
51579;DHT22;47998;53.242;6.386;2024-03-17T06:23:11;3.60;99.90
51579;DHT22;47998;53.242;6.386;2024-03-17T06:25:40;3.70;99.90
51579;DHT22;47998;53.242;6.386;2024-03-17T06:28:08;3.80;99.90
51579;DHT22;47998;53.242;6.386;2024-03-17T06:30:33;3.90;99.90
51579;DHT22;47998;53.242;6.386;2024-03-17T06:33:01;4.00;99.90
51579;DHT22;47998;53.242;6.386;2024-03-17T06:35:27;4.10;99.90
51579;DHT22;47998;53.242;6.386;2024-03-17T06:37:54;4.10;99.90
51579;DHT22;47998;53.242;6.386;2024-03-17T06:40:19;4.20;99.90
51579;DHT22;47998;53.242;6.386;2024-03-17T06:42:45;4.30;99.90
51579;DHT22;47998;53.242;6.386;2024-03-17T06:45:11;4.40;99.90
51579;DHT22;47998;53.242;6.386;2024-03-17T06:47:37;4.50;99.90
51579;DHT22;47998;53.242;6.386;2024-03-17T06:50:04;4.70;99.90
51579;DHT22;47998;53.242;6.386;2024-03-17T06:52:30;4.80;99.90
51579;DHT22;47998;53.242;6.386;2024-03-17T06:54:57;4.90;99.90
51579;DHT22;47998;53.242;6.386;2024-03-17T06:57:24;5.00;99.90
51579;DHT22;47998;53.242;6.386;2024-03-17T06:59:50;5.10;99.90
51579;DHT22;47998;53.242;6.386;2024-03-17T07:02:16;5.20;99.90
51579;DHT22;47998;53.242;6.386;2024-03-17T07:04:47;5.30;99.90
51579;DHT22;47998;53.242;6.386;2024-03-17T07:07:13;5.30;99.90
51579;DHT22;47998;53.242;6.386;2024-03-17T07:09:40;5.40;99.90
51579;DHT22;47998;53.242;6.386;2024-03-17T07:12:11;5.50;99.90
51579;DHT22;47998;53.242;6.386;2024-03-17T07:14:39;5.60;99.90
51579;DHT22;47998;53.242;6.386;2024-03-17T07:17:05;5.60;99.90
51579;DHT22;47998;53.242;6.386;2024-03-17T07:19:32;5.70;99.90
51579;DHT22;47998;53.242;6.386;2024-03-17T07:21:58;5.70;99.90
51579;DHT22;47998;53.242;6.386;2024-03-17T07:24:24;5.80;99.90
51579;DHT22;47998;53.242;6.386;2024-03-17T07:26:50;5.80;99.90
51579;DHT22;47998;53.242;6.386;2024-03-17T07:29:17;5.90;99.90
51579;DHT22;47998;53.242;6.386;2024-03-17T07:31:44;5.90;99.90
51579;DHT22;47998;53.242;6.386;2024-03-17T07:34:10;6.00;99.90
51579;DHT22;47998;53.242;6.386;2024-03-17T07:36:36;6.00;99.90
51579;DHT22;47998;53.242;6.386;2024-03-17T07:39:03;6.00;99.90
51579;DHT22;47998;53.242;6.386;2024-03-17T07:41:28;6.00;99.90
51579;DHT22;47998;53.242;6.386;2024-03-17T07:43:54;6.00;99.90
51579;DHT22;47998;53.242;6.386;2024-03-17T07:46:20;6.00;99.90
51579;DHT22;47998;53.242;6.386;2024-03-17T07:48:45;6.10;99.90
51579;DHT22;47998;53.242;6.386;2024-03-17T07:51:13;6.20;99.90
51579;DHT22;47998;53.242;6.386;2024-03-17T07:53:40;6.20;99.90
51579;DHT22;47998;53.242;6.386;2024-03-17T07:56:08;6.30;99.90
51579;DHT22;47998;53.242;6.386;2024-03-17T07:58:39;6.40;99.90
51579;DHT22;47998;53.242;6.386;2024-03-17T08:01:06;6.50;99.90
51579;DHT22;47998;53.242;6.386;2024-03-17T08:03:34;6.60;99.90
51579;DHT22;47998;53.242;6.386;2024-03-17T08:06:01;6.80;99.90
51579;DHT22;47998;53.242;6.386;2024-03-17T08:08:28;6.90;99.90
51579;DHT22;47998;53.242;6.386;2024-03-17T08:10:53;7.10;99.90
51579;DHT22;47998;53.242;6.386;2024-03-17T08:13:21;7.20;99.90
51579;DHT22;47998;53.242;6.386;2024-03-17T08:15:58;7.30;99.90
51579;DHT22;47998;53.242;6.386;2024-03-17T08:18:24;7.40;99.90
51579;DHT22;47998;53.242;6.386;2024-03-17T08:20:50;7.60;99.90
51579;DHT22;47998;53.242;6.386;2024-03-17T08:23:16;7.80;99.90
51579;DHT22;47998;53.242;6.386;2024-03-17T08:25:42;7.90;99.90
51579;DHT22;47998;53.242;6.386;2024-03-17T08:28:08;8.10;99.90
51579;DHT22;47998;53.242;6.386;2024-03-17T08:30:34;8.10;99.90
51579;DHT22;47998;53.242;6.386;2024-03-17T08:33:00;8.20;99.90
51579;DHT22;47998;53.242;6.386;2024-03-17T08:35:26;8.10;99.90
51579;DHT22;47998;53.242;6.386;2024-03-17T08:37:52;8.10;99.90
51579;DHT22;47998;53.242;6.386;2024-03-17T08:40:20;8.00;99.90
51579;DHT22;47998;53.242;6.386;2024-03-17T08:42:46;8.10;99.90
51579;DHT22;47998;53.242;6.386;2024-03-17T08:45:12;8.20;99.90
51579;DHT22;47998;53.242;6.386;2024-03-17T08:47:38;8.30;99.90
51579;DHT22;47998;53.242;6.386;2024-03-17T08:50:04;8.30;99.90
51579;DHT22;47998;53.242;6.386;2024-03-17T08:52:30;8.40;99.90
51579;DHT22;47998;53.242;6.386;2024-03-17T08:54:59;8.60;99.90
51579;DHT22;47998;53.242;6.386;2024-03-17T08:57:25;8.80;99.90
51579;DHT22;47998;53.242;6.386;2024-03-17T08:59:51;9.00;99.90
51579;DHT22;47998;53.242;6.386;2024-03-17T09:02:20;9.10;99.90
51579;DHT22;47998;53.242;6.386;2024-03-17T09:04:48;9.20;99.90
51579;DHT22;47998;53.242;6.386;2024-03-17T09:07:14;9.40;99.90
51579;DHT22;47998;53.242;6.386;2024-03-17T09:09:46;9.50;99.90
51579;DHT22;47998;53.242;6.386;2024-03-17T09:12:12;9.60;99.90
51579;DHT22;47998;53.242;6.386;2024-03-17T09:14:37;9.60;99.90
51579;DHT22;47998;53.242;6.386;2024-03-17T09:17:03;9.70;99.90
51579;DHT22;47998;53.242;6.386;2024-03-17T09:19:29;9.80;99.90
51579;DHT22;47998;53.242;6.386;2024-03-17T09:21:55;9.80;99.90
51579;DHT22;47998;53.242;6.386;2024-03-17T09:24:21;10.00;99.90
51579;DHT22;47998;53.242;6.386;2024-03-17T09:26:47;10.10;99.90
51579;DHT22;47998;53.242;6.386;2024-03-17T09:29:13;10.30;99.90
51579;DHT22;47998;53.242;6.386;2024-03-17T09:31:41;10.70;99.90
51579;DHT22;47998;53.242;6.386;2024-03-17T09:34:07;10.80;99.90
51579;DHT22;47998;53.242;6.386;2024-03-17T09:36:33;10.90;99.90
51579;DHT22;47998;53.242;6.386;2024-03-17T09:38:59;10.80;99.90
51579;DHT22;47998;53.242;6.386;2024-03-17T09:41:29;10.70;99.90
51579;DHT22;47998;53.242;6.386;2024-03-17T09:43:59;10.60;99.90
51579;DHT22;47998;53.242;6.386;2024-03-17T09:46:25;10.30;99.90
51579;DHT22;47998;53.242;6.386;2024-03-17T09:48:53;10.10;99.90
51579;DHT22;47998;53.242;6.386;2024-03-17T09:51:23;9.90;99.90
51579;DHT22;47998;53.242;6.386;2024-03-17T09:53:49;9.60;99.90
51579;DHT22;47998;53.242;6.386;2024-03-17T09:56:17;9.50;99.90
51579;DHT22;47998;53.242;6.386;2024-03-17T09:58:50;9.50;99.90
51579;DHT22;47998;53.242;6.386;2024-03-17T10:01:16;9.50;99.90
51579;DHT22;47998;53.242;6.386;2024-03-17T10:03:50;9.50;99.90
51579;DHT22;47998;53.242;6.386;2024-03-17T10:06:25;9.40;99.90
51579;DHT22;47998;53.242;6.386;2024-03-17T10:08:59;9.50;99.90
51579;DHT22;47998;53.242;6.386;2024-03-17T10:11:35;9.40;99.90
51579;DHT22;47998;53.242;6.386;2024-03-17T10:14:02;9.30;99.90
51579;DHT22;47998;53.242;6.386;2024-03-17T10:16:29;9.30;99.90
51579;DHT22;47998;53.242;6.386;2024-03-17T10:19:14;9.30;99.90
51579;DHT22;47998;53.242;6.386;2024-03-17T10:21:45;9.30;99.90
51579;DHT22;47998;53.242;6.386;2024-03-17T10:24:23;9.30;99.90
51579;DHT22;47998;53.242;6.386;2024-03-17T10:26:50;9.30;99.90
51579;DHT22;47998;53.242;6.386;2024-03-17T10:29:35;9.20;99.90
51579;DHT22;47998;53.242;6.386;2024-03-17T10:32:15;9.10;99.90
51579;DHT22;47998;53.242;6.386;2024-03-17T10:34:44;9.10;99.90
51579;DHT22;47998;53.242;6.386;2024-03-17T10:37:17;9.10;99.90
51579;DHT22;47998;53.242;6.386;2024-03-17T10:39:46;9.10;99.90
51579;DHT22;47998;53.242;6.386;2024-03-17T10:42:13;9.20;99.90
51579;DHT22;47998;53.242;6.386;2024-03-17T10:44:41;9.20;99.90
51579;DHT22;47998;53.242;6.386;2024-03-17T10:47:09;9.30;99.90
51579;DHT22;47998;53.242;6.386;2024-03-17T10:49:42;9.30;99.90
51579;DHT22;47998;53.242;6.386;2024-03-17T10:52:16;9.40;99.90
51579;DHT22;47998;53.242;6.386;2024-03-17T10:54:48;9.40;99.90
51579;DHT22;47998;53.242;6.386;2024-03-17T10:59:59;9.40;99.90
51579;DHT22;47998;53.242;6.386;2024-03-17T11:02:27;9.40;99.90
51579;DHT22;47998;53.242;6.386;2024-03-17T11:05:02;9.40;99.90
51579;DHT22;47998;53.242;6.386;2024-03-17T11:07:29;9.50;99.90
51579;DHT22;47998;53.242;6.386;2024-03-17T11:09:58;9.50;99.90
51579;DHT22;47998;53.242;6.386;2024-03-17T11:20:37;9.80;99.90
51579;DHT22;47998;53.242;6.386;2024-03-17T11:23:03;9.90;99.90
51579;DHT22;47998;53.242;6.386;2024-03-17T11:28:07;10.00;99.90
51579;DHT22;47998;53.242;6.386;2024-03-17T11:33:54;10.20;99.90
51579;DHT22;47998;53.242;6.386;2024-03-17T11:38:59;10.30;99.90
51579;DHT22;47998;53.242;6.386;2024-03-17T11:41:46;10.40;99.90
51579;DHT22;47998;53.242;6.386;2024-03-17T11:47:04;10.50;99.90
51579;DHT22;47998;53.242;6.386;2024-03-17T11:49:37;10.70;99.90
51579;DHT22;47998;53.242;6.386;2024-03-17T11:52:14;10.70;99.90
51579;DHT22;47998;53.242;6.386;2024-03-17T11:54:45;10.80;99.90
51579;DHT22;47998;53.242;6.386;2024-03-17T11:57:14;10.80;99.90
51579;DHT22;47998;53.242;6.386;2024-03-17T11:59:41;10.90;99.90
51579;DHT22;47998;53.242;6.386;2024-03-17T12:02:31;11.00;99.90
51579;DHT22;47998;53.242;6.386;2024-03-17T12:04:59;11.10;99.90
51579;DHT22;47998;53.242;6.386;2024-03-17T12:07:25;11.50;99.90
51579;DHT22;47998;53.242;6.386;2024-03-17T12:09:54;11.70;99.90
51579;DHT22;47998;53.242;6.386;2024-03-17T12:12:21;12.00;99.90
51579;DHT22;47998;53.242;6.386;2024-03-17T12:14:48;12.40;99.90
51579;DHT22;47998;53.242;6.386;2024-03-17T12:17:22;12.50;99.90
51579;DHT22;47998;53.242;6.386;2024-03-17T12:19:48;12.50;99.90
51579;DHT22;47998;53.242;6.386;2024-03-17T12:22:22;12.50;99.90
51579;DHT22;47998;53.242;6.386;2024-03-17T12:24:51;12.70;99.90
51579;DHT22;47998;53.242;6.386;2024-03-17T12:27:22;13.00;99.90
51579;DHT22;47998;53.242;6.386;2024-03-17T12:29:49;12.70;99.90
51579;DHT22;47998;53.242;6.386;2024-03-17T12:32:17;12.40;99.90
51579;DHT22;47998;53.242;6.386;2024-03-17T12:34:54;12.30;99.90
51579;DHT22;47998;53.242;6.386;2024-03-17T12:37:21;12.30;99.90
51579;DHT22;47998;53.242;6.386;2024-03-17T12:39:48;12.20;99.90
51579;DHT22;47998;53.242;6.386;2024-03-17T12:42:15;12.20;99.90
51579;DHT22;47998;53.242;6.386;2024-03-17T12:44:52;12.10;99.90
51579;DHT22;47998;53.242;6.386;2024-03-17T12:47:22;12.10;99.90
51579;DHT22;47998;53.242;6.386;2024-03-17T12:49:56;12.00;99.90
51579;DHT22;47998;53.242;6.386;2024-03-17T12:52:22;11.80;99.90
51579;DHT22;47998;53.242;6.386;2024-03-17T12:55:09;11.70;99.90
51579;DHT22;47998;53.242;6.386;2024-03-17T13:00:57;11.60;99.90
51579;DHT22;47998;53.242;6.386;2024-03-17T13:03:34;11.50;99.90
51579;DHT22;47998;53.242;6.386;2024-03-17T13:06:04;11.50;99.90
51579;DHT22;47998;53.242;6.386;2024-03-17T13:08:34;11.50;99.90
51579;DHT22;47998;53.242;6.386;2024-03-17T13:11:01;11.40;99.90
51579;DHT22;47998;53.242;6.386;2024-03-17T13:13:29;11.40;99.90
51579;DHT22;47998;53.242;6.386;2024-03-17T13:15:55;11.40;99.90
51579;DHT22;47998;53.242;6.386;2024-03-17T13:18:21;11.40;99.90
51579;DHT22;47998;53.242;6.386;2024-03-17T13:20:47;11.40;99.90
51579;DHT22;47998;53.242;6.386;2024-03-17T13:23:15;11.30;99.90
51579;DHT22;47998;53.242;6.386;2024-03-17T13:25:41;11.30;99.90
51579;DHT22;47998;53.242;6.386;2024-03-17T13:28:09;11.20;99.90
51579;DHT22;47998;53.242;6.386;2024-03-17T13:30:35;11.20;99.90
51579;DHT22;47998;53.242;6.386;2024-03-17T13:33:05;11.20;99.90
51579;DHT22;47998;53.242;6.386;2024-03-17T13:35:35;11.20;99.90
51579;DHT22;47998;53.242;6.386;2024-03-17T13:38:04;11.20;99.90
51579;DHT22;47998;53.242;6.386;2024-03-17T13:40:32;11.10;99.90
51579;DHT22;47998;53.242;6.386;2024-03-17T13:42:59;11.20;99.90
51579;DHT22;47998;53.242;6.386;2024-03-17T13:45:28;11.30;99.90
51579;DHT22;47998;53.242;6.386;2024-03-17T13:47:59;11.20;99.90
51579;DHT22;47998;53.242;6.386;2024-03-17T13:50:25;11.30;99.90
51579;DHT22;47998;53.242;6.386;2024-03-17T13:52:50;11.20;99.90
51579;DHT22;47998;53.242;6.386;2024-03-17T13:55:18;11.30;99.90
51579;DHT22;47998;53.242;6.386;2024-03-17T13:57:45;11.30;99.90
51579;DHT22;47998;53.242;6.386;2024-03-17T14:00:12;11.30;99.90
51579;DHT22;47998;53.242;6.386;2024-03-17T14:02:45;11.40;99.90
51579;DHT22;47998;53.242;6.386;2024-03-17T14:05:13;11.30;99.90
51579;DHT22;47998;53.242;6.386;2024-03-17T14:07:39;11.30;99.90
51579;DHT22;47998;53.242;6.386;2024-03-17T14:10:05;11.20;99.90
51579;DHT22;47998;53.242;6.386;2024-03-17T14:12:33;11.20;99.90
51579;DHT22;47998;53.242;6.386;2024-03-17T14:14:59;11.20;99.90
51579;DHT22;47998;53.242;6.386;2024-03-17T14:17:25;11.20;99.90
51579;DHT22;47998;53.242;6.386;2024-03-17T14:19:51;11.10;99.90
51579;DHT22;47998;53.242;6.386;2024-03-17T14:22:16;11.00;99.90
51579;DHT22;47998;53.242;6.386;2024-03-17T14:24:43;11.00;99.90
51579;DHT22;47998;53.242;6.386;2024-03-17T14:27:12;10.90;99.90
51579;DHT22;47998;53.242;6.386;2024-03-17T14:29:38;10.90;99.90
51579;DHT22;47998;53.242;6.386;2024-03-17T14:32:04;10.90;99.90
51579;DHT22;47998;53.242;6.386;2024-03-17T14:34:30;10.90;99.90
51579;DHT22;47998;53.242;6.386;2024-03-17T14:37:02;10.80;99.90
51579;DHT22;47998;53.242;6.386;2024-03-17T14:39:32;10.80;99.90
51579;DHT22;47998;53.242;6.386;2024-03-17T14:41:58;10.80;99.90
51579;DHT22;47998;53.242;6.386;2024-03-17T14:44:24;10.80;99.90
51579;DHT22;47998;53.242;6.386;2024-03-17T14:46:50;10.70;99.90
51579;DHT22;47998;53.242;6.386;2024-03-17T14:49:20;10.80;99.90
51579;DHT22;47998;53.242;6.386;2024-03-17T14:51:46;10.70;99.90
51579;DHT22;47998;53.242;6.386;2024-03-17T14:54:12;10.70;99.90
51579;DHT22;47998;53.242;6.386;2024-03-17T14:56:38;10.70;99.90
51579;DHT22;47998;53.242;6.386;2024-03-17T14:59:05;10.80;99.90
51579;DHT22;47998;53.242;6.386;2024-03-17T15:01:31;10.70;99.90
51579;DHT22;47998;53.242;6.386;2024-03-17T15:03:57;10.80;99.90
51579;DHT22;47998;53.242;6.386;2024-03-17T15:06:23;10.80;99.90
51579;DHT22;47998;53.242;6.386;2024-03-17T15:08:50;10.80;99.90
51579;DHT22;47998;53.242;6.386;2024-03-17T15:11:16;10.80;99.90
51579;DHT22;47998;53.242;6.386;2024-03-17T15:13:43;10.70;99.90
51579;DHT22;47998;53.242;6.386;2024-03-17T15:16:09;10.80;99.90
51579;DHT22;47998;53.242;6.386;2024-03-17T15:18:35;10.80;99.90
51579;DHT22;47998;53.242;6.386;2024-03-17T15:21:02;10.80;99.90
51579;DHT22;47998;53.242;6.386;2024-03-17T15:23:31;10.80;99.90
51579;DHT22;47998;53.242;6.386;2024-03-17T15:28:31;10.80;99.90
51579;DHT22;47998;53.242;6.386;2024-03-17T15:30:57;10.70;99.90
51579;DHT22;47998;53.242;6.386;2024-03-17T15:33:26;10.70;99.90
51579;DHT22;47998;53.242;6.386;2024-03-17T15:35:51;10.60;99.90
51579;DHT22;47998;53.242;6.386;2024-03-17T15:38:17;10.70;99.90
51579;DHT22;47998;53.242;6.386;2024-03-17T15:40:43;10.70;99.90
51579;DHT22;47998;53.242;6.386;2024-03-17T15:43:09;10.60;99.90
51579;DHT22;47998;53.242;6.386;2024-03-17T15:45:35;10.60;99.90
51579;DHT22;47998;53.242;6.386;2024-03-17T15:48:04;10.50;99.90
51579;DHT22;47998;53.242;6.386;2024-03-17T15:50:30;10.50;99.90
51579;DHT22;47998;53.242;6.386;2024-03-17T15:52:56;10.50;99.90
51579;DHT22;47998;53.242;6.386;2024-03-17T15:55:22;10.50;99.90
51579;DHT22;47998;53.242;6.386;2024-03-17T15:57:49;10.50;99.90
51579;DHT22;47998;53.242;6.386;2024-03-17T16:00:14;10.40;99.90
51579;DHT22;47998;53.242;6.386;2024-03-17T16:02:44;10.40;99.90
51579;DHT22;47998;53.242;6.386;2024-03-17T16:05:13;10.40;99.90
51579;DHT22;47998;53.242;6.386;2024-03-17T16:07:41;10.30;99.90
51579;DHT22;47998;53.242;6.386;2024-03-17T16:10:10;10.30;99.90
51579;DHT22;47998;53.242;6.386;2024-03-17T16:12:36;10.30;99.90